createdAt,value
2022-12-11T00:04:30.729Z,24.73
2022-12-11T00:09:34.193Z,23.05
2022-12-11T00:14:37.853Z,23.20
2022-12-11T00:19:42.977Z,24.02
2022-12-11T00:24:46.452Z,21.80
2022-12-11T00:29:49.973Z,22.58
2022-12-11T00:34:54.866Z,23.00
2022-12-11T00:39:58.378Z,23.17
2022-12-11T00:45:01.850Z,26.08
2022-12-11T00:50:08.142Z,24.67
2022-12-11T00:55:12.620Z,21.73
2022-12-11T01:00:16.689Z,23.25
2022-12-11T01:05:21.637Z,22.85
2022-12-11T01:10:25.409Z,23.48
2022-12-11T01:15:32.243Z,24.70
2022-12-11T01:20:39.668Z,24.33
2022-12-11T01:25:43.724Z,23.35
2022-12-11T01:30:47.321Z,23.15
2022-12-11T01:35:52.170Z,22.75
2022-12-11T01:40:55.656Z,21.05
2022-12-11T01:45:59.221Z,22.00
2022-12-11T01:51:06.783Z,22.95
2022-12-11T01:56:11.650Z,23.25
2022-12-11T02:01:21.730Z,23.27
2022-12-11T02:06:35.731Z,18.30
2022-12-11T02:11:48.699Z,25.05
2022-12-11T02:16:57.247Z,23.40
2022-12-11T02:22:08.269Z,25.85
2022-12-11T02:27:30.024Z,25.73
2022-12-11T02:32:39.613Z,24.50
2022-12-11T02:37:46.150Z,25.42
2022-12-11T02:42:50.880Z,25.08
2022-12-11T02:47:57.850Z,24.30
2022-12-11T02:53:05.150Z,27.60
2022-12-11T02:58:14.436Z,23.92
2022-12-11T03:03:19.411Z,26.52
2022-12-11T03:08:22.981Z,27.65
2022-12-11T03:13:26.521Z,25.70
2022-12-11T03:18:37.588Z,26.42
2022-12-11T03:23:48.875Z,26.02
2022-12-11T03:28:57.530Z,26.98
2022-12-11T03:34:05.516Z,25.80
2022-12-11T03:39:12.729Z,26.42
2022-12-11T03:44:18.187Z,26.30
2022-12-11T03:49:27.886Z,25.75
2022-12-11T03:54:32.280Z,26.30
2022-12-11T03:59:35.737Z,24.90
2022-12-11T04:04:42.413Z,23.88
2022-12-11T04:09:46.125Z,28.90
2022-12-11T04:15:04.719Z,28.27
2022-12-11T04:20:30.080Z,27.27
2022-12-11T04:25:33.636Z,29.60
2022-12-11T04:30:37.147Z,26.23
2022-12-11T04:35:41.989Z,28.30
2022-12-11T04:40:45.440Z,26.60
2022-12-11T04:45:48.939Z,26.05
2022-12-11T04:50:53.793Z,27.45
2022-12-11T04:55:57.708Z,28.08
2022-12-11T05:01:01.176Z,25.67
2022-12-11T05:06:06.570Z,28.85
2022-12-11T05:11:12.716Z,27.80
2022-12-11T05:16:18.002Z,28.88
2022-12-11T05:21:22.913Z,25.88
2022-12-11T05:26:26.552Z,26.77
2022-12-11T05:31:30.081Z,27.13
2022-12-11T05:36:35.373Z,26.35
2022-12-11T05:41:38.891Z,25.27
2022-12-11T05:46:42.386Z,28.30
2022-12-11T05:51:47.558Z,26.58
2022-12-11T05:56:51.985Z,25.42
2022-12-11T06:01:55.651Z,27.15
2022-12-11T06:07:00.687Z,26.77
2022-12-11T06:12:04.246Z,25.55
2022-12-11T06:17:08.011Z,23.63
2022-12-11T06:22:12.811Z,23.15
2022-12-11T06:27:16.439Z,23.08
2022-12-11T06:32:20.079Z,23.80
2022-12-11T06:37:25.201Z,20.23
2022-12-11T06:42:30.869Z,22.48
2022-12-11T06:47:34.479Z,22.65
2022-12-11T06:52:39.304Z,21.40
2022-12-11T06:57:43.090Z,20.45
2022-12-11T07:02:46.626Z,21.00
2022-12-11T07:07:53.969Z,20.13
2022-12-11T07:12:57.489Z,18.65
2022-12-11T07:18:01.240Z,17.35
2022-12-11T07:23:06.196Z,19.75
2022-12-11T07:28:13.655Z,20.45
2022-12-11T07:33:20.275Z,19.10
2022-12-11T07:38:25.090Z,19.05
2022-12-11T07:43:28.680Z,17.20
2022-12-11T07:48:32.173Z,17.88
2022-12-11T07:53:37.157Z,17.90
2022-12-11T07:58:40.658Z,18.45
2022-12-11T08:03:44.705Z,18.02
2022-12-11T08:08:49.777Z,16.80
2022-12-11T08:13:53.701Z,16.60
2022-12-11T08:18:57.171Z,16.80
2022-12-11T08:24:02.218Z,15.52
2022-12-11T08:29:06.063Z,17.92
2022-12-11T08:34:14.003Z,15.30
2022-12-11T08:39:19.726Z,15.75
2022-12-11T08:44:25.330Z,15.30
2022-12-11T08:49:34.233Z,16.00
2022-12-11T08:54:39.844Z,16.77
2022-12-11T08:59:43.703Z,16.63
2022-12-11T09:04:47.699Z,17.05
2022-12-11T09:09:52.756Z,17.13
2022-12-11T09:14:56.439Z,16.20
2022-12-11T09:20:00.387Z,16.80
2022-12-11T09:25:06.869Z,15.98
2022-12-11T09:30:11.277Z,16.15
2022-12-11T09:35:17.278Z,15.00
2022-12-11T09:40:22.269Z,13.95
2022-12-11T09:45:25.966Z,16.38
2022-12-11T09:50:33.504Z,15.38
2022-12-11T09:55:44.234Z,14.68
2022-12-11T10:00:51.465Z,16.65
2022-12-11T10:06:04.942Z,15.10
2022-12-11T10:11:28.326Z,16.67
2022-12-11T10:16:39.518Z,18.33
2022-12-11T10:21:46.175Z,15.05
2022-12-11T10:26:55.766Z,16.02
2022-12-11T10:31:59.940Z,16.42
2022-12-11T10:37:03.972Z,16.10
2022-12-11T10:42:18.659Z,15.50
2022-12-11T10:47:22.164Z,16.40
2022-12-11T10:52:28.562Z,17.38
2022-12-11T10:57:37.212Z,16.42
2022-12-11T11:02:42.585Z,18.00
2022-12-11T11:07:46.377Z,18.35
2022-12-11T11:13:01.268Z,20.38
2022-12-11T11:18:12.979Z,18.33
2022-12-11T11:23:19.962Z,19.35
2022-12-11T11:28:28.309Z,21.27
2022-12-11T11:33:34.256Z,19.48
2022-12-11T11:38:42.959Z,19.50
2022-12-11T11:43:52.031Z,19.75
2022-12-11T11:49:06.437Z,18.55
2022-12-11T11:54:21.885Z,17.60
2022-12-11T11:59:32.379Z,18.70
2022-12-11T12:04:36.920Z,18.73
2022-12-11T12:09:48.812Z,17.88
2022-12-11T12:15:09.673Z,17.65
2022-12-11T12:20:22.144Z,17.33
2022-12-11T12:25:33.093Z,16.00
2022-12-11T12:36:02.075Z,16.65
2022-12-11T12:41:19.876Z,17.52
2022-12-11T12:46:36.475Z,18.17
2022-12-11T12:51:41.195Z,17.13
2022-12-11T12:56:47.354Z,17.17
2022-12-11T13:01:57.190Z,16.92
2022-12-11T13:07:13.087Z,18.15
2022-12-11T13:12:17.512Z,18.70
2022-12-11T13:17:36.817Z,18.75
2022-12-11T13:22:55.215Z,18.08
2022-12-11T13:28:09.557Z,19.25
2022-12-11T13:33:19.926Z,18.38
2022-12-11T13:38:23.934Z,15.63
2022-12-11T13:43:31.198Z,18.48
2022-12-11T13:48:39.920Z,17.08
2022-12-11T13:53:43.836Z,17.63
2022-12-11T13:58:48.279Z,18.30
2022-12-11T14:03:56.638Z,16.52
2022-12-11T14:09:02.577Z,26.95
2022-12-11T14:14:08.505Z,16.55
2022-12-11T14:19:19.471Z,17.80
2022-12-11T14:29:30.359Z,19.25
2022-12-11T14:34:38.225Z,17.40
2022-12-11T14:39:47.345Z,17.80
2022-12-11T14:44:54.986Z,16.17
2022-12-11T14:50:06.215Z,17.38
2022-12-11T14:55:16.132Z,15.40
2022-12-11T15:00:24.328Z,19.98
2022-12-11T15:05:29.854Z,18.20
2022-12-11T15:10:37.711Z,19.85
2022-12-11T15:15:47.487Z,16.67
2022-12-11T15:20:55.080Z,15.40
2022-12-11T15:26:01.105Z,17.30
2022-12-11T15:31:07.290Z,16.13
2022-12-11T15:36:26.801Z,15.43
2022-12-11T15:41:33.666Z,17.58
2022-12-11T15:46:37.967Z,17.45
2022-12-11T15:51:43.615Z,15.25
2022-12-11T15:56:47.316Z,15.95
2022-12-11T16:01:51.061Z,16.83
2022-12-11T16:06:56.171Z,18.20
2022-12-11T16:12:00.137Z,19.90
2022-12-11T16:17:04.199Z,19.08
2022-12-11T16:22:10.042Z,16.90
2022-12-11T16:27:18.609Z,17.88
2022-12-11T16:32:25.289Z,17.50
2022-12-11T16:37:30.313Z,16.90
2022-12-11T16:42:38.842Z,18.73
2022-12-11T16:47:42.948Z,18.30
2022-12-11T16:52:47.926Z,21.00
2022-12-11T16:57:51.490Z,17.90
2022-12-11T17:02:55.516Z,18.70
2022-12-11T17:08:02.103Z,18.23
2022-12-11T17:13:06.020Z,19.45
2022-12-11T17:18:09.698Z,17.48
2022-12-11T17:23:14.812Z,17.23
2022-12-11T17:28:18.455Z,18.88
2022-12-11T17:33:22.397Z,17.40
2022-12-11T17:38:27.516Z,17.20
2022-12-11T17:43:34.681Z,17.80
2022-12-11T17:48:38.660Z,18.05
2022-12-11T17:53:43.709Z,16.50
2022-12-11T17:58:47.506Z,16.42
2022-12-11T18:03:51.278Z,17.48
2022-12-11T18:08:56.410Z,15.93
2022-12-11T18:14:00.411Z,16.80
2022-12-11T18:19:04.011Z,16.63
2022-12-11T18:24:10.901Z,15.45
2022-12-11T18:29:14.964Z,16.00
2022-12-11T18:34:18.772Z,16.75
2022-12-11T18:39:24.611Z,16.05
2022-12-11T18:44:28.311Z,16.23
2022-12-11T18:49:32.423Z,17.48
2022-12-11T18:54:37.952Z,17.55
2022-12-11T18:59:41.557Z,17.05
2022-12-11T19:04:45.266Z,16.90
2022-12-11T19:09:50.282Z,15.48
2022-12-11T19:14:54.597Z,16.45
2022-12-11T19:19:58.403Z,18.08
2022-12-11T19:25:03.775Z,18.30
2022-12-11T19:30:08.884Z,17.35
2022-12-11T19:35:14.239Z,17.23
2022-12-11T19:40:21.650Z,16.65
2022-12-11T19:45:25.506Z,15.63
2022-12-11T19:50:29.606Z,17.38
2022-12-11T19:55:34.627Z,18.13
2022-12-11T20:00:38.948Z,17.42
2022-12-11T20:05:42.755Z,17.00
2022-12-11T20:10:48.173Z,17.60
2022-12-11T20:15:52.250Z,18.40
2022-12-11T20:20:56.136Z,17.40
2022-12-11T20:26:06.895Z,15.88
2022-12-11T20:31:18.096Z,17.65
2022-12-11T20:36:24.355Z,15.98
2022-12-11T20:41:29.707Z,17.80
2022-12-11T20:46:33.458Z,17.00
2022-12-11T20:51:37.246Z,19.23
2022-12-11T20:56:42.246Z,18.55
2022-12-11T21:01:46.084Z,17.85
2022-12-11T21:06:55.495Z,16.33
2022-12-11T21:12:01.685Z,17.10
2022-12-11T21:17:05.312Z,17.63
2022-12-11T21:22:10.930Z,16.80
2022-12-11T21:27:15.932Z,16.40
2022-12-11T21:32:20.536Z,16.85
2022-12-11T21:37:24.515Z,16.42
2022-12-11T21:42:29.633Z,15.52
2022-12-11T21:47:33.224Z,21.95
2022-12-11T21:52:38.483Z,16.33
2022-12-11T21:57:43.904Z,17.80
2022-12-11T22:02:47.792Z,17.65
2022-12-11T22:07:51.721Z,16.90
2022-12-11T22:12:56.938Z,15.85
2022-12-11T22:18:00.601Z,24.60
2022-12-11T22:23:04.069Z,21.83
2022-12-11T22:28:09.295Z,18.45
2022-12-11T22:33:13.167Z,16.70
2022-12-11T22:38:16.646Z,16.75
2022-12-11T22:43:21.748Z,18.45
2022-12-11T22:48:27.425Z,16.33
2022-12-11T22:53:30.884Z,17.33
2022-12-11T22:58:36.037Z,17.45
2022-12-11T23:03:39.736Z,16.70
2022-12-11T23:08:43.940Z,16.23
2022-12-11T23:13:48.943Z,17.80
2022-12-11T23:18:52.559Z,16.50
2022-12-11T23:23:56.270Z,15.85
2022-12-11T23:29:01.390Z,16.73
2022-12-11T23:34:07.926Z,14.18
2022-12-11T23:39:11.748Z,15.73
2022-12-11T23:44:16.680Z,16.45
2022-12-11T23:49:20.176Z,15.82
2022-12-11T23:54:23.684Z,14.07
2022-12-11T23:59:28.491Z,15.20
